Time;durP1;ratioP1;P1;durP2;ratioP2;P2;SDS_P1;SDS_P2;PMS_P1;PMS_P2;Temp;Humidity;BMP_temperature;BMP_pressure;BME280_temperature;BME280_humidity;BME280_pressure;Samples;Min_cycle;Max_cycle;Signal;HPM_P1;HPM_P2
2021/10/10 00:02:11;;;;;;;20.08;17.80;;;11.00;99.90;;;;;;4992287;28;20042;-67
2021/10/10 00:04:38;;;;;;;26.88;19.67;;;11.10;99.90;;;;;;4993146;28;20171;-65
2021/10/10 00:07:05;;;;;;;26.00;19.73;;;11.10;99.90;;;;;;5001249;28;20383;-65
2021/10/10 00:09:32;;;;;;;26.83;20.73;;;11.10;99.90;;;;;;5000634;28;20046;-66
2021/10/10 00:11:59;;;;;;;29.65;19.52;;;11.10;99.90;;;;;;4996083;28;20161;-65
2021/10/10 00:14:26;;;;;;;32.85;22.27;;;11.10;99.90;;;;;;4992988;28;20104;-66
2021/10/10 00:16:52;;;;;;;26.15;19.27;;;11.10;99.90;;;;;;4997983;28;20069;-67
2021/10/10 00:19:19;;;;;;;26.17;20.15;;;11.10;99.90;;;;;;5002430;28;20538;-65
2021/10/10 00:21:46;;;;;;;27.05;21.60;;;11.00;99.90;;;;;;4997080;28;20080;-66
2021/10/10 00:24:13;;;;;;;25.42;20.27;;;11.00;99.90;;;;;;4991562;28;20436;-64
2021/10/10 00:26:40;;;;;;;28.67;21.33;;;11.00;99.90;;;;;;4994571;28;20058;-65
2021/10/10 00:29:07;;;;;;;29.85;19.92;;;11.00;99.90;;;;;;4984183;28;20356;-64
2021/10/10 00:31:34;;;;;;;27.60;20.48;;;11.00;99.90;;;;;;4997006;28;20070;-66
2021/10/10 00:34:01;;;;;;;29.35;20.10;;;11.00;99.90;;;;;;5003063;28;20623;-65
2021/10/10 00:36:28;;;;;;;26.85;20.05;;;11.00;99.90;;;;;;4997050;28;20058;-65
2021/10/10 00:38:55;;;;;;;25.75;19.30;;;11.00;99.90;;;;;;4996824;28;20133;-68
2021/10/10 00:41:21;;;;;;;26.45;20.73;;;11.00;99.90;;;;;;4999265;28;20076;-65
2021/10/10 00:43:48;;;;;;;26.70;21.17;;;11.00;99.90;;;;;;4995665;28;20085;-65
2021/10/10 00:46:15;;;;;;;26.20;20.58;;;11.00;99.90;;;;;;5003234;28;20148;-68
2021/10/10 00:48:42;;;;;;;23.08;20.25;;;11.00;99.90;;;;;;4998162;28;20149;-65
2021/10/10 00:51:09;;;;;;;25.80;20.85;;;11.00;99.90;;;;;;5005006;28;20069;-66
2021/10/10 00:53:37;;;;;;;28.65;19.77;;;11.00;99.90;;;;;;5000113;28;20073;-65
2021/10/10 00:56:05;;;;;;;31.23;20.73;;;10.90;99.90;;;;;;4993382;28;20456;-67
2021/10/10 00:58:33;;;;;;;27.08;21.95;;;10.90;99.90;;;;;;5003093;28;20038;-65
2021/10/10 01:01:00;;;;;;;23.70;20.35;;;10.90;99.90;;;;;;4996882;28;20078;-66
2021/10/10 01:03:27;;;;;;;28.33;19.90;;;10.90;99.90;;;;;;5004565;28;20121;-65
2021/10/10 01:05:54;;;;;;;30.80;20.25;;;10.90;99.90;;;;;;4999069;28;20432;-66
2021/10/10 01:08:21;;;;;;;27.92;20.20;;;10.90;99.90;;;;;;4987234;28;20077;-66
2021/10/10 01:10:50;;;;;;;28.90;20.33;;;10.90;99.90;;;;;;5001255;28;20060;-66
2021/10/10 01:13:17;;;;;;;23.70;18.95;;;10.90;99.90;;;;;;4996999;28;20149;-66
2021/10/10 01:15:46;;;;;;;22.67;18.60;;;10.90;99.90;;;;;;4999965;28;20185;-68
2021/10/10 01:18:22;;;;;;;47.63;19.60;;;10.90;99.90;;;;;;5001492;28;20133;-66
2021/10/10 01:20:51;;;;;;;21.77;19.08;;;10.90;99.90;;;;;;4998426;28;20558;-66
2021/10/10 01:23:19;;;;;;;23.73;16.95;;;10.90;99.90;;;;;;4993779;28;20691;-66
2021/10/10 01:25:46;;;;;;;24.10;18.45;;;10.80;99.90;;;;;;5000829;28;20096;-64
2021/10/10 01:28:13;;;;;;;26.90;17.50;;;10.90;99.90;;;;;;5001925;28;20081;-65
2021/10/10 01:30:40;;;;;;;26.33;17.02;;;10.80;99.90;;;;;;4991795;28;20042;-65
2021/10/10 01:33:12;;;;;;;24.52;17.45;;;10.80;99.90;;;;;;5001162;28;20149;-65
2021/10/10 01:35:40;;;;;;;22.33;16.13;;;10.80;99.90;;;;;;4999192;28;20515;-69
2021/10/10 01:38:09;;;;;;;22.65;18.17;;;10.80;99.90;;;;;;4992459;28;20065;-65
2021/10/10 01:40:37;;;;;;;25.85;19.05;;;10.90;99.90;;;;;;4998220;28;20427;-68
2021/10/10 01:43:05;;;;;;;22.30;16.30;;;10.80;99.90;;;;;;4998473;28;20129;-67
2021/10/10 01:45:33;;;;;;;19.98;17.65;;;10.80;99.90;;;;;;5001996;28;20703;-69
2021/10/10 01:48:00;;;;;;;19.75;17.20;;;10.80;99.90;;;;;;5002042;28;20046;-65
2021/10/10 01:50:27;;;;;;;20.13;16.08;;;10.80;99.90;;;;;;5001035;28;20054;-65
2021/10/10 01:52:54;;;;;;;19.58;16.75;;;10.80;99.90;;;;;;5001675;28;20121;-65
2021/10/10 01:55:22;;;;;;;20.40;17.13;;;10.80;99.90;;;;;;5004928;28;20046;-65
2021/10/10 01:57:49;;;;;;;19.35;17.27;;;10.80;99.90;;;;;;4998934;28;20046;-67
2021/10/10 02:00:16;;;;;;;20.83;18.10;;;10.80;99.90;;;;;;4996604;28;20058;-67
2021/10/10 02:02:43;;;;;;;19.52;17.30;;;10.80;99.90;;;;;;4999267;28;20487;-65
2021/10/10 02:05:10;;;;;;;25.15;18.48;;;10.90;99.90;;;;;;5003576;28;20041;-67
2021/10/10 02:07:38;;;;;;;20.67;17.33;;;10.80;99.90;;;;;;5003458;28;20164;-65
2021/10/10 02:10:06;;;;;;;21.15;18.17;;;10.90;99.90;;;;;;4991521;28;20120;-65
2021/10/10 02:12:33;;;;;;;25.35;19.45;;;10.90;99.90;;;;;;5000245;28;20081;-68
2021/10/10 02:15:00;;;;;;;22.30;17.13;;;10.80;99.90;;;;;;4989587;28;20046;-66
2021/10/10 02:17:27;;;;;;;21.13;18.25;;;10.80;99.90;;;;;;4995794;28;20192;-67
2021/10/10 02:19:53;;;;;;;22.27;17.50;;;10.80;99.90;;;;;;4997858;28;20108;-65
2021/10/10 02:22:20;;;;;;;24.35;16.98;;;10.80;99.90;;;;;;4997930;28;20034;-65
2021/10/10 02:24:47;;;;;;;20.50;16.80;;;10.80;99.90;;;;;;4994343;28;20121;-66
2021/10/10 02:27:14;;;;;;;23.60;17.55;;;10.70;99.90;;;;;;4998501;28;20570;-65
2021/10/10 02:29:41;;;;;;;21.50;18.23;;;10.70;99.90;;;;;;4991822;28;20137;-65
2021/10/10 02:32:09;;;;;;;23.00;15.85;;;10.70;99.90;;;;;;4994154;28;20042;-65
2021/10/10 02:34:35;;;;;;;20.48;16.67;;;10.70;99.90;;;;;;4996706;28;20069;-66
2021/10/10 02:37:02;;;;;;;27.20;17.17;;;10.70;99.90;;;;;;5003127;28;20443;-65
2021/10/10 02:39:29;;;;;;;22.33;17.13;;;10.70;99.90;;;;;;4997931;28;20061;-66
2021/10/10 02:41:58;;;;;;;21.80;17.90;;;10.70;99.90;;;;;;4999782;28;20046;-66
2021/10/10 02:44:25;;;;;;;22.80;15.32;;;10.60;99.90;;;;;;4999312;28;20069;-66
2021/10/10 02:46:52;;;;;;;19.25;15.18;;;10.70;99.90;;;;;;4996785;28;20062;-65
2021/10/10 02:49:19;;;;;;;20.92;16.85;;;10.60;99.90;;;;;;4992103;28;20096;-68
2021/10/10 02:51:47;;;;;;;21.33;16.88;;;10.60;99.90;;;;;;4989764;28;20047;-68
2021/10/10 02:54:14;;;;;;;24.95;16.67;;;10.60;99.90;;;;;;4989952;28;20723;-66
2021/10/10 02:56:41;;;;;;;23.15;16.17;;;10.60;99.90;;;;;;4996183;28;20445;-65
2021/10/10 02:59:07;;;;;;;20.05;15.80;;;10.50;99.90;;;;;;4995812;28;20074;-65
2021/10/10 03:01:34;;;;;;;25.00;14.60;;;10.50;99.90;;;;;;5003593;28;20523;-65
2021/10/10 03:04:01;;;;;;;23.00;15.00;;;10.50;99.90;;;;;;4991853;28;20136;-69
2021/10/10 03:06:28;;;;;;;23.75;15.60;;;10.50;99.90;;;;;;4998741;28;20092;-65
2021/10/10 03:08:55;;;;;;;19.05;13.80;;;10.50;99.90;;;;;;4995690;28;20084;-67
2021/10/10 03:11:22;;;;;;;21.63;14.13;;;10.50;99.90;;;;;;4990744;28;20082;-67
2021/10/10 03:13:49;;;;;;;23.08;14.30;;;10.50;99.90;;;;;;4989303;28;20782;-65
2021/10/10 03:16:16;;;;;;;24.25;14.55;;;10.50;99.90;;;;;;4995093;28;20100;-65
2021/10/10 03:18:43;;;;;;;18.60;13.98;;;10.50;99.90;;;;;;4998332;28;20029;-66
2021/10/10 03:21:10;;;;;;;25.05;14.52;;;10.50;99.90;;;;;;4993565;28;20101;-66
2021/10/10 03:23:37;;;;;;;23.42;14.65;;;10.40;99.90;;;;;;4999070;28;20080;-66
2021/10/10 03:26:04;;;;;;;21.65;14.88;;;10.40;99.90;;;;;;4998058;28;20082;-66
2021/10/10 03:28:30;;;;;;;17.10;12.40;;;10.40;99.90;;;;;;4996956;28;20058;-65
2021/10/10 03:30:58;;;;;;;16.40;12.35;;;10.40;99.90;;;;;;4997177;28;20087;-67
2021/10/10 03:33:25;;;;;;;24.15;13.07;;;10.40;99.90;;;;;;4991558;28;20050;-69
2021/10/10 03:35:52;;;;;;;17.90;10.90;;;10.30;99.90;;;;;;4996325;28;20127;-65
2021/10/10 03:38:19;;;;;;;18.70;13.77;;;10.30;99.90;;;;;;4990828;28;20073;-65
2021/10/10 03:40:46;;;;;;;20.20;13.30;;;10.30;99.90;;;;;;5002251;28;20105;-66
2021/10/10 03:43:12;;;;;;;17.33;12.27;;;10.30;99.90;;;;;;4994083;28;20581;-65
2021/10/10 03:45:39;;;;;;;15.95;12.18;;;10.30;99.90;;;;;;4993036;28;20626;-67
2021/10/10 03:48:06;;;;;;;19.67;11.38;;;10.30;99.90;;;;;;4999138;28;20051;-67
2021/10/10 03:50:33;;;;;;;16.33;11.65;;;10.30;99.90;;;;;;4999140;28;20046;-65
2021/10/10 03:53:00;;;;;;;15.23;12.40;;;10.30;99.90;;;;;;4998575;28;20677;-66
2021/10/10 03:57:59;;;;;;;13.48;11.32;;;10.30;99.90;;;;;;4988845;28;20050;-65
2021/10/10 04:00:27;;;;;;;16.25;11.40;;;10.30;99.90;;;;;;4999031;28;20456;-66
2021/10/10 04:02:55;;;;;;;17.90;12.95;;;10.30;99.90;;;;;;5001963;28;20038;-66
2021/10/10 04:07:59;;;;;;;17.60;13.93;;;10.30;99.90;;;;;;4990248;28;20488;-64
2021/10/10 04:10:27;;;;;;;16.15;12.02;;;10.30;99.90;;;;;;4994369;28;20402;-66
2021/10/10 04:12:54;;;;;;;17.60;10.70;;;10.30;99.90;;;;;;4997801;28;20062;-67
2021/10/10 04:15:21;;;;;;;20.75;12.10;;;10.30;99.90;;;;;;5006145;28;20065;-65
2021/10/10 04:17:48;;;;;;;16.13;10.30;;;10.40;99.90;;;;;;5001191;28;20069;-65
2021/10/10 04:20:17;;;;;;;20.45;11.57;;;10.40;99.90;;;;;;4993578;28;20046;-65
2021/10/10 04:22:45;;;;;;;15.95;12.13;;;10.40;99.90;;;;;;4995061;28;20046;-66
2021/10/10 04:25:12;;;;;;;17.75;12.23;;;10.40;99.90;;;;;;4998192;28;20069;-65
2021/10/10 04:27:40;;;;;;;15.82;11.60;;;10.40;99.90;;;;;;4986506;28;20109;-66
2021/10/10 04:30:11;;;;;;;18.02;11.95;;;10.40;99.90;;;;;;4996226;28;20152;-65
2021/10/10 04:32:40;;;;;;;16.52;10.35;;;10.40;99.90;;;;;;4998046;28;20030;-65
2021/10/10 04:35:08;;;;;;;20.27;13.20;;;10.40;99.90;;;;;;5005098;28;20497;-64
2021/10/10 04:37:35;;;;;;;18.95;13.18;;;10.40;99.90;;;;;;4993376;28;20054;-67
2021/10/10 04:40:03;;;;;;;18.65;12.43;;;10.40;99.90;;;;;;4998352;28;20108;-65
2021/10/10 04:42:36;;;;;;;12.40;11.05;;;10.40;99.90;;;;;;5001178;28;20129;-65
2021/10/10 04:45:05;;;;;;;16.27;10.27;;;10.40;99.90;;;;;;4998693;28;20038;-65
2021/10/10 04:47:31;;;;;;;14.57;10.95;;;10.40;99.90;;;;;;4995672;28;20108;-72
2021/10/10 04:49:58;;;;;;;17.30;14.07;;;10.40;99.90;;;;;;4995045;28;20042;-65
2021/10/10 04:52:25;;;;;;;15.88;10.95;;;10.40;99.90;;;;;;4993942;28;20074;-65
2021/10/10 04:54:52;;;;;;;18.50;12.10;;;10.30;99.90;;;;;;4993905;28;20069;-66
2021/10/10 04:57:19;;;;;;;20.65;11.70;;;10.30;99.90;;;;;;5002934;28;20084;-66
2021/10/10 04:59:52;;;;;;;15.27;11.38;;;10.30;99.90;;;;;;4994794;28;20081;-65
2021/10/10 05:02:20;;;;;;;18.08;11.75;;;10.30;99.90;;;;;;4998258;28;20074;-66
2021/10/10 05:04:49;;;;;;;14.52;11.85;;;10.30;99.90;;;;;;4980868;28;20391;-64
2021/10/10 05:07:17;;;;;;;19.58;12.73;;;10.30;99.90;;;;;;4991326;28;20070;-66
2021/10/10 05:09:44;;;;;;;19.08;12.30;;;10.30;99.90;;;;;;4995720;28;20119;-66
2021/10/10 05:12:13;;;;;;;15.77;11.65;;;10.30;99.90;;;;;;5000062;28;20109;-69
2021/10/10 05:14:41;;;;;;;24.48;11.68;;;10.40;99.90;;;;;;5000936;28;20050;-65
2021/10/10 05:17:08;;;;;;;14.82;10.95;;;10.30;99.90;;;;;;5000799;28;20042;-65
2021/10/10 05:19:34;;;;;;;13.90;11.75;;;10.30;99.90;;;;;;4995572;28;20077;-65
2021/10/10 05:22:02;;;;;;;15.35;10.88;;;10.30;99.90;;;;;;4991588;28;20104;-65
2021/10/10 05:24:29;;;;;;;10.63;9.52;;;10.30;99.90;;;;;;4999065;28;20633;-65
2021/10/10 05:26:58;;;;;;;20.10;12.27;;;10.30;99.90;;;;;;4998160;28;20049;-66
2021/10/10 05:29:25;;;;;;;14.10;10.38;;;10.30;99.90;;;;;;5002336;28;20153;-66
2021/10/10 05:31:51;;;;;;;11.77;9.18;;;10.30;99.90;;;;;;4999153;28;20065;-64
2021/10/10 05:34:18;;;;;;;14.68;10.75;;;10.30;99.90;;;;;;4994686;28;20472;-66
2021/10/10 05:36:45;;;;;;;15.68;11.43;;;10.30;99.90;;;;;;4995258;28;20504;-66
2021/10/10 05:39:12;;;;;;;18.55;10.55;;;10.30;99.90;;;;;;5001084;28;20096;-65
2021/10/10 05:41:39;;;;;;;12.82;9.52;;;10.30;99.90;;;;;;4996636;28;20125;-65
2021/10/10 05:44:11;;;;;;;14.10;10.13;;;10.30;99.90;;;;;;4997598;28;20068;-66
2021/10/10 05:46:38;;;;;;;15.15;9.80;;;10.30;99.90;;;;;;4999528;28;20450;-65
2021/10/10 05:49:05;;;;;;;12.75;9.27;;;10.20;99.90;;;;;;4995510;28;20093;-68
2021/10/10 05:51:32;;;;;;;14.48;9.50;;;10.20;99.90;;;;;;5004408;28;20124;-65
2021/10/10 05:53:59;;;;;;;10.00;7.70;;;10.30;99.90;;;;;;4998935;28;20073;-64
2021/10/10 05:56:26;;;;;;;13.85;8.70;;;10.20;99.90;;;;;;4992638;28;20046;-66
2021/10/10 05:59:02;;;;;;;9.90;7.28;;;10.20;99.90;;;;;;5000953;28;20522;-66
2021/10/10 06:01:37;;;;;;;13.25;8.02;;;10.30;99.90;;;;;;5000168;28;20053;-68
2021/10/10 06:04:05;;;;;;;9.57;6.40;;;10.30;99.90;;;;;;4996937;28;20353;-65
2021/10/10 06:06:32;;;;;;;12.32;7.55;;;10.30;99.90;;;;;;4988883;28;20069;-64
2021/10/10 06:08:59;;;;;;;9.10;6.55;;;10.30;99.90;;;;;;5001992;28;20229;-66
2021/10/10 06:11:27;;;;;;;10.52;7.43;;;10.30;99.90;;;;;;4994751;28;20097;-64
2021/10/10 06:13:54;;;;;;;9.95;6.65;;;10.30;99.90;;;;;;4994002;28;20114;-65
2021/10/10 06:16:21;;;;;;;9.35;7.35;;;10.30;99.90;;;;;;4996264;28;20085;-69
2021/10/10 06:18:48;;;;;;;9.02;6.70;;;10.30;99.90;;;;;;4995652;28;20659;-66
2021/10/10 06:21:15;;;;;;;8.32;7.28;;;10.30;99.90;;;;;;4998510;28;20441;-69
2021/10/10 06:23:42;;;;;;;11.77;6.30;;;10.30;99.90;;;;;;4998690;28;20061;-66
2021/10/10 06:26:09;;;;;;;9.63;7.03;;;10.30;99.90;;;;;;4999996;28;20069;-64
2021/10/10 06:28:36;;;;;;;11.98;6.95;;;10.30;99.90;;;;;;4998482;28;20065;-64
2021/10/10 06:31:02;;;;;;;8.07;6.97;;;10.30;99.90;;;;;;5003651;28;20046;-65
2021/10/10 06:33:29;;;;;;;10.07;5.97;;;10.40;99.90;;;;;;4996773;28;20124;-65
2021/10/10 06:35:56;;;;;;;9.20;6.35;;;10.40;99.90;;;;;;4995346;28;20085;-67
2021/10/10 06:38:23;;;;;;;7.72;6.22;;;10.40;99.90;;;;;;4993244;28;20089;-69
2021/10/10 06:40:50;;;;;;;8.90;5.82;;;10.40;99.90;;;;;;4996207;28;20041;-66
2021/10/10 06:43:17;;;;;;;7.07;6.20;;;10.40;99.90;;;;;;4997188;28;20082;-65
2021/10/10 06:45:44;;;;;;;11.27;7.28;;;10.40;99.90;;;;;;4992531;28;20564;-69
2021/10/10 06:48:11;;;;;;;11.80;6.43;;;10.50;99.90;;;;;;4994260;28;20132;-65
2021/10/10 06:50:38;;;;;;;7.00;5.50;;;10.50;99.90;;;;;;4998147;28;20412;-66
2021/10/10 06:53:05;;;;;;;10.32;5.93;;;10.50;99.90;;;;;;4997998;28;20539;-65
2021/10/10 06:55:32;;;;;;;8.82;6.57;;;10.50;99.90;;;;;;5003669;28;20072;-65
2021/10/10 06:57:59;;;;;;;15.50;6.43;;;10.60;99.90;;;;;;4995535;28;20085;-67
2021/10/10 07:00:25;;;;;;;7.25;5.60;;;10.60;99.90;;;;;;4998663;28;20132;-65
2021/10/10 07:02:52;;;;;;;7.97;6.07;;;10.60;99.90;;;;;;4999420;28;20053;-65
2021/10/10 07:05:19;;;;;;;11.45;6.47;;;10.70;99.90;;;;;;5003826;28;20100;-65
2021/10/10 07:07:46;;;;;;;6.82;5.75;;;10.70;99.90;;;;;;4999120;28;20070;-67
2021/10/10 07:10:13;;;;;;;13.68;7.57;;;10.70;99.90;;;;;;4998916;28;20046;-65
2021/10/10 07:12:40;;;;;;;7.90;6.35;;;10.70;99.90;;;;;;5000302;28;20123;-64
2021/10/10 07:15:08;;;;;;;9.45;6.90;;;10.80;99.90;;;;;;4999710;28;20050;-64
2021/10/10 07:17:35;;;;;;;7.47;5.68;;;10.80;99.90;;;;;;5000663;28;20151;-64
2021/10/10 07:20:08;;;;;;;8.35;6.78;;;10.90;99.90;;;;;;4990764;28;20140;-65
2021/10/10 07:25:08;;;;;;;10.52;6.57;;;10.90;99.90;;;;;;4993280;28;20204;-67
2021/10/10 07:27:41;;;;;;;8.18;6.70;;;11.00;99.90;;;;;;4995900;28;20133;-65
2021/10/10 07:30:11;;;;;;;11.93;6.57;;;11.00;99.90;;;;;;4987047;28;20081;-65
2021/10/10 07:32:39;;;;;;;10.25;6.60;;;11.00;99.90;;;;;;5001658;28;20088;-66
2021/10/10 07:35:07;;;;;;;11.63;6.90;;;11.10;99.90;;;;;;4996165;28;20129;-65
2021/10/10 07:37:35;;;;;;;7.72;5.82;;;11.10;99.90;;;;;;4999781;28;20069;-65
2021/10/10 07:40:03;;;;;;;10.27;7.47;;;11.20;99.90;;;;;;4997437;28;20141;-66
2021/10/10 07:42:30;;;;;;;21.35;7.18;;;11.20;99.90;;;;;;4998176;28;20688;-68
2021/10/10 07:45:06;;;;;;;10.48;7.20;;;11.30;99.90;;;;;;4991795;28;20388;-67
2021/10/10 07:48:01;;;;;;;12.90;7.28;;;11.40;99.90;;;;;;4999992;28;20069;-65
2021/10/10 07:50:36;;;;;;;9.63;6.97;;;11.40;99.90;;;;;;4998091;28;20136;-65
2021/10/10 07:53:05;;;;;;;6.82;6.15;;;11.40;99.90;;;;;;4999418;28;20088;-67
2021/10/10 07:55:32;;;;;;;9.30;7.30;;;11.50;99.90;;;;;;5005349;28;20077;-66
2021/10/10 07:58:00;;;;;;;10.98;6.57;;;11.50;99.90;;;;;;4997015;28;20069;-65
2021/10/10 08:00:33;;;;;;;9.68;8.50;;;11.60;99.90;;;;;;4997892;28;20089;-66
2021/10/10 08:03:02;;;;;;;11.05;8.45;;;11.60;99.90;;;;;;4998495;28;20050;-67
2021/10/10 08:05:36;;;;;;;12.02;7.03;;;11.60;99.90;;;;;;4997974;28;20120;-65
2021/10/10 08:08:04;;;;;;;9.25;6.82;;;11.60;99.90;;;;;;4996259;28;20069;-66
2021/10/10 08:10:31;;;;;;;12.73;7.65;;;11.70;99.90;;;;;;5004826;28;20046;-64
2021/10/10 08:12:58;;;;;;;18.02;8.43;;;11.70;99.90;;;;;;4997338;28;20089;-64
2021/10/10 08:15:25;;;;;;;11.02;8.07;;;11.70;99.90;;;;;;5000359;28;20065;-66
2021/10/10 08:17:52;;;;;;;8.93;6.80;;;11.70;99.90;;;;;;4999245;28;20088;-66
2021/10/10 08:20:19;;;;;;;12.18;7.88;;;11.70;99.90;;;;;;4996630;28;20155;-66
2021/10/10 08:22:47;;;;;;;9.88;6.93;;;11.70;99.90;;;;;;4995862;28;20050;-65
2021/10/10 08:25:15;;;;;;;11.63;7.97;;;11.70;99.90;;;;;;5001241;28;20042;-65
2021/10/10 08:27:44;;;;;;;10.90;7.60;;;11.70;99.90;;;;;;5002026;28;20125;-66
2021/10/10 08:30:21;;;;;;;9.90;6.93;;;11.60;99.90;;;;;;4994867;28;20093;-70
2021/10/10 08:32:48;;;;;;;11.40;8.48;;;11.60;99.90;;;;;;5000892;28;20392;-64
2021/10/10 08:35:15;;;;;;;16.38;8.63;;;11.70;99.90;;;;;;4997795;28;20104;-65
2021/10/10 08:37:42;;;;;;;9.43;6.88;;;11.60;99.90;;;;;;4997166;28;20451;-66
2021/10/10 08:40:12;;;;;;;10.68;8.43;;;11.60;99.90;;;;;;4999607;28;20295;-70
2021/10/10 08:42:43;;;;;;;10.63;7.53;;;11.70;99.90;;;;;;5000794;28;20440;-64
2021/10/10 08:45:15;;;;;;;10.27;8.48;;;11.70;99.90;;;;;;4999582;28;20419;-65
2021/10/10 08:47:43;;;;;;;11.52;7.63;;;11.80;99.90;;;;;;4998583;28;20168;-67
2021/10/10 08:50:18;;;;;;;9.82;7.43;;;11.80;99.90;;;;;;5001153;28;20066;-66
2021/10/10 08:52:46;;;;;;;12.23;8.13;;;11.80;99.90;;;;;;5001493;28;20167;-64
2021/10/10 08:55:14;;;;;;;10.27;8.50;;;11.80;99.90;;;;;;5002826;28;20495;-64
2021/10/10 08:57:41;;;;;;;10.77;7.75;;;11.80;99.90;;;;;;5005902;28;20112;-65
2021/10/10 09:00:31;;;;;;;8.05;7.07;;;11.90;99.90;;;;;;5000616;28;20042;-64
2021/10/10 09:02:59;;;;;;;11.18;7.40;;;11.90;99.90;;;;;;4965184;28;20039;-66
2021/10/10 09:05:35;;;;;;;8.95;6.57;;;11.90;99.90;;;;;;4981518;28;20046;-65
2021/10/10 09:08:02;;;;;;;11.13;8.32;;;12.00;99.90;;;;;;4986876;28;20650;-65
2021/10/10 09:10:34;;;;;;;9.27;6.97;;;12.10;99.90;;;;;;4977797;28;20049;-65
2021/10/10 09:13:06;;;;;;;8.80;7.10;;;12.00;99.90;;;;;;4984835;28;20181;-65
2021/10/10 09:15:36;;;;;;;10.50;7.43;;;12.10;99.90;;;;;;4987171;28;20038;-66
2021/10/10 09:18:05;;;;;;;11.75;7.78;;;12.10;99.90;;;;;;4982164;28;20042;-65
2021/10/10 09:20:43;;;;;;;8.13;7.00;;;12.20;99.90;;;;;;4980780;28;20464;-65
2021/10/10 09:23:33;;;;;;;11.18;6.70;;;12.20;99.90;;;;;;4985832;28;20411;-68
2021/10/10 09:26:02;;;;;;;7.38;6.60;;;12.20;99.90;;;;;;4983356;28;20097;-65
2021/10/10 09:28:33;;;;;;;10.25;7.15;;;12.20;99.90;;;;;;4959905;28;20069;-65
2021/10/10 09:31:03;;;;;;;11.98;6.63;;;12.20;99.90;;;;;;4978086;28;20132;-69
2021/10/10 09:33:46;;;;;;;10.07;7.68;;;12.20;99.90;;;;;;4934106;28;20061;-64
2021/10/10 09:36:23;;;;;;;12.25;8.00;;;12.30;99.90;;;;;;4949382;28;20042;-68
2021/10/10 09:44:13;;;;;;;10.57;6.38;;;12.40;99.90;;;;;;4949836;28;20039;-66
2021/10/10 09:46:45;;;;;;;11.82;6.95;;;12.40;99.90;;;;;;4950585;28;20057;-66
2021/10/10 09:49:30;;;;;;;8.95;6.65;;;12.50;99.90;;;;;;4951901;28;20051;-66
2021/10/10 09:52:09;;;;;;;7.72;6.60;;;12.60;99.90;;;;;;4950160;28;20093;-65
2021/10/10 09:54:55;;;;;;;7.47;6.72;;;12.60;99.90;;;;;;4955247;28;20058;-65
2021/10/10 09:57:24;;;;;;;11.05;7.50;;;12.70;99.90;;;;;;4953591;28;20232;-66
2021/10/10 09:59:53;;;;;;;11.95;6.93;;;12.70;99.90;;;;;;4982700;28;20069;-65
2021/10/10 10:02:40;;;;;;;8.48;6.25;;;12.80;99.90;;;;;;4998414;28;20080;-66
2021/10/10 10:05:08;;;;;;;6.55;5.72;;;12.90;99.90;;;;;;5003188;28;20060;-64
2021/10/10 10:07:35;;;;;;;10.55;7.18;;;12.90;99.90;;;;;;5004993;28;20085;-66
2021/10/10 10:10:03;;;;;;;8.32;6.70;;;12.90;99.90;;;;;;5008654;28;20042;-65
2021/10/10 10:12:30;;;;;;;8.13;7.30;;;12.90;99.90;;;;;;5004936;28;20483;-65
2021/10/10 10:15:00;;;;;;;9.38;7.10;;;12.90;99.90;;;;;;5005260;28;20042;-67
2021/10/10 10:17:28;;;;;;;;;;;13.00;99.90;;;;;;5009655;28;20368;-65
2021/10/10 10:20:00;;;;;;;9.13;7.38;;;12.90;99.90;;;;;;5001232;28;20292;-65
2021/10/10 10:22:31;;;;;;;9.88;6.68;;;12.90;99.90;;;;;;5001512;28;20371;-66
2021/10/10 10:24:59;;;;;;;8.27;6.07;;;12.90;99.90;;;;;;5003112;28;20058;-66
2021/10/10 10:27:26;;;;;;;10.35;6.43;;;13.00;99.90;;;;;;5006685;28;20077;-64
2021/10/10 10:29:55;;;;;;;10.35;6.45;;;13.00;99.90;;;;;;4999921;28;20125;-66
2021/10/10 10:32:24;;;;;;;8.20;6.30;;;13.00;99.90;;;;;;5002757;28;20049;-66
2021/10/10 10:35:02;;;;;;;8.20;7.03;;;13.00;99.90;;;;;;5005349;28;20160;-66
2021/10/10 10:37:41;;;;;;;7.80;6.10;;;13.00;99.90;;;;;;5003467;28;20050;-64
2021/10/10 10:40:14;;;;;;;8.00;6.28;;;12.90;99.90;;;;;;4999982;28;20029;-65
2021/10/10 10:42:43;;;;;;;12.15;5.68;;;12.90;99.90;;;;;;5003248;28;20088;-65
2021/10/10 10:45:41;;;;;;;9.18;6.82;;;12.80;99.90;;;;;;5001627;28;20089;-65
2021/10/10 10:48:26;;;;;;;8.68;6.43;;;12.80;99.90;;;;;;4999900;28;20112;-65
2021/10/10 10:51:17;;;;;;;8.38;6.85;;;12.80;99.90;;;;;;5004556;28;20119;-65
2021/10/10 10:53:44;;;;;;;7.32;6.43;;;12.90;99.90;;;;;;5001358;28;20432;-65
2021/10/10 10:56:33;;;;;;;10.63;5.85;;;12.90;99.90;;;;;;5006737;28;20073;-66
2021/10/10 10:59:01;;;;;;;7.60;6.22;;;12.90;99.90;;;;;;5005783;28;20196;-65
2021/10/10 11:02:01;;;;;;;5.82;5.05;;;12.90;99.90;;;;;;4996809;28;20071;-65
2021/10/10 11:04:29;;;;;;;;;;;12.90;99.90;;;;;;5001968;28;20448;-65
2021/10/10 11:06:58;;;;;;;6.30;5.20;;;12.90;99.90;;;;;;5005222;28;19983;-65
2021/10/10 11:09:26;;;;;;;8.57;5.60;;;12.90;99.90;;;;;;4998811;28;20050;-64
2021/10/10 11:11:59;;;;;;;8.13;5.68;;;12.90;99.90;;;;;;4997684;28;20041;-66
2021/10/10 11:14:29;;;;;;;8.18;5.50;;;12.80;99.90;;;;;;5002178;28;20069;-65
2021/10/10 11:17:07;;;;;;;6.70;5.05;;;12.80;99.90;;;;;;5003241;28;20172;-68
2021/10/10 11:19:34;;;;;;;8.07;5.72;;;12.80;99.90;;;;;;4998762;28;20042;-65
2021/10/10 11:22:01;;;;;;;8.10;4.82;;;12.80;99.90;;;;;;5002177;28;20077;-65
2021/10/10 11:24:28;;;;;;;5.95;4.88;;;12.80;99.90;;;;;;5006674;28;20527;-65
2021/10/10 11:26:58;;;;;;;8.07;5.40;;;12.80;99.90;;;;;;4956015;28;21186;-65
2021/10/10 11:29:37;;;;;;;7.67;5.47;;;12.80;99.90;;;;;;3066911;28;10003167;-65
2021/10/10 11:32:04;;;;;;;10.88;6.72;;;12.80;99.90;;;;;;3274772;28;10002145;-65
2021/10/10 11:34:31;;;;;;;10.38;4.35;;;12.70;99.90;;;;;;5004287;28;20046;-65
2021/10/10 11:36:59;;;;;;;6.88;6.18;;;12.80;99.90;;;;;;5003410;28;20038;-68
2021/10/10 11:39:28;;;;;;;6.90;5.30;;;12.80;99.90;;;;;;5005353;28;20050;-64
2021/10/10 11:42:02;;;;;;;5.78;5.20;;;12.80;99.90;;;;;;5002320;28;20081;-65
2021/10/10 11:44:36;;;;;;;5.55;4.60;;;12.80;99.90;;;;;;5008053;28;20136;-64
2021/10/10 11:47:05;;;;;;;7.05;4.55;;;12.90;99.90;;;;;;5003237;28;20069;-65
2021/10/10 11:49:40;;;;;;;6.45;4.35;;;12.90;99.90;;;;;;5000803;28;20468;-69
2021/10/10 11:52:38;;;;;;;8.13;5.63;;;12.90;99.90;;;;;;5000815;28;20058;-65
2021/10/10 11:55:49;;;;;;;6.32;4.82;;;12.90;99.90;;;;;;5001578;28;20077;-66
2021/10/10 11:57:56;;;;;;;5.50;4.57;;;12.90;99.90;;;;;;4991433;28;20054;-68
2021/10/10 12:00:28;;;;;;;6.72;5.20;;;12.90;99.90;;;;;;5003697;28;20130;-65
2021/10/10 12:03:09;;;;;;;7.35;5.00;;;12.90;99.90;;;;;;4999251;28;20049;-64
2021/10/10 12:05:42;;;;;;;6.65;5.35;;;12.90;99.90;;;;;;5004616;28;20534;-68
2021/10/10 12:08:20;;;;;;;10.88;5.78;;;12.80;99.90;;;;;;4999983;28;20045;-66
2021/10/10 12:10:48;;;;;;;23.98;6.95;;;12.80;99.90;;;;;;4999283;28;20095;-65
2021/10/10 12:13:20;;;;;;;10.27;6.40;;;12.80;99.90;;;;;;4994642;28;20072;-65
2021/10/10 12:16:01;;;;;;;5.95;4.53;;;12.80;99.90;;;;;;4999786;28;20049;-65
2021/10/10 12:18:30;;;;;;;7.72;5.13;;;12.80;99.90;;;;;;4993883;28;20046;-65
2021/10/10 12:21:20;;;;;;;7.93;6.10;;;12.90;99.90;;;;;;5002755;28;20164;-66
2021/10/10 12:24:01;;;;;;;;;;;12.90;99.90;;;;;;5003750;28;20090;-65
2021/10/10 12:26:29;;;;;;;;;;;12.90;99.90;;;;;;4998178;28;19918;-66
2021/10/10 12:28:56;;;;;;;6.93;5.63;;;12.90;99.90;;;;;;4999473;28;20039;-65
2021/10/10 12:31:23;;;;;;;6.43;5.78;;;12.80;99.90;;;;;;5006257;28;20038;-66
2021/10/10 12:34:09;;;;;;;7.53;5.05;;;12.90;99.90;;;;;;5003468;28;20477;-65
2021/10/10 12:36:44;;;;;;;5.60;5.00;;;12.80;99.90;;;;;;5000532;28;20097;-65
2021/10/10 12:39:12;;;;;;;6.85;5.50;;;12.80;99.90;;;;;;5005745;28;20084;-66
2021/10/10 12:41:39;;;;;;;8.32;5.78;;;12.80;99.90;;;;;;5007378;28;20113;-64
2021/10/10 12:44:09;;;;;;;6.82;5.68;;;12.80;99.90;;;;;;5002210;28;20309;-65
2021/10/10 12:46:50;;;;;;;11.95;6.07;;;12.80;99.90;;;;;;5005789;28;20062;-66
2021/10/10 12:49:32;;;;;;;7.35;6.20;;;12.80;99.90;;;;;;5007031;28;20092;-64
2021/10/10 12:52:05;;;;;;;7.28;6.22;;;12.90;99.90;;;;;;5004129;28;20049;-65
2021/10/10 12:54:46;;;;;;;6.75;6.15;;;12.90;99.90;;;;;;5003865;28;20789;-66
2021/10/10 12:57:17;;;;;;;7.40;5.57;;;12.90;99.90;;;;;;5003770;28;20042;-65
2021/10/10 12:59:54;;;;;;;;;;;12.90;99.90;;;;;;5005358;28;20038;-65
2021/10/10 13:02:21;;;;;;;6.85;6.07;;;12.90;99.90;;;;;;4998348;28;19921;-65
2021/10/10 13:04:48;;;;;;;6.30;5.40;;;12.90;99.90;;;;;;5006644;28;20062;-65